VRG4873 TTCP-SBGL
Flight info
| Callsign | VRG4873 |
|---|---|
| Flight time | 5h 5m |
| Altitude | 35000 |
| Route | TAB UR515 POS UA324 MINDA UL452 ASASO/N0479F370 UL452 ILKUS/N0474F380 UZ38 MULUV/N0473F390 UZ24 MAVGU |
| Aircraft | MD11/H-SDE1E2E3FGHIJ2J3J4J5M1RWXY/LB1D1 |
Departure
| Time | 2026-04-30 14:29 |
|---|---|
| Airport | A.N.R. Robinson International Airport (TTCP) |
Arrival
| Time | 2026-04-30 19:35 |
|---|---|
| Airport | Rio Galeão – Tom Jobim International Airport (SBGL) |
| Time | Latitude | Longitude | Altitude | Speed | Heading |
|---|---|---|---|---|---|
| 2026-04-30 13:31 | 11.15186 | -60.84004 | 43 ft | 0 kts | 0° |
| 2026-04-30 13:34 | 11.15190 | -60.84004 | 43 ft | 0 kts | 0° |
| 2026-04-30 13:35 | 11.15183 | -60.84153 | 43 ft | 0 kts | 3° |
| 2026-04-30 13:35 | 11.15190 | -60.84004 | 43 ft | 0 kts | 0° |
| 2026-04-30 14:18 | 11.15185 | -60.84004 | 43 ft | 4 kts | 358° |
| 2026-04-30 14:19 | 11.15137 | -60.83988 | 37 ft | 4 kts | 315° |
| 2026-04-30 14:19 | 11.15121 | -60.83968 | 38 ft | 4 kts | 294° |
| 2026-04-30 14:19 | 11.15113 | -60.83945 | 37 ft | 2 kts | 275° |
| 2026-04-30 14:20 | 11.15113 | -60.83943 | 38 ft | 0 kts | 275° |
| 2026-04-30 14:26 | 11.15119 | -60.84011 | 40 ft | 9 kts | 275° |
| 2026-04-30 14:27 | 11.15123 | -60.84085 | 42 ft | 11 kts | 260° |
| 2026-04-30 14:27 | 11.15073 | -60.84162 | 41 ft | 15 kts | 231° |
| 2026-04-30 14:27 | 11.15044 | -60.84268 | 41 ft | 13 kts | 272° |
| 2026-04-30 14:28 | 11.15009 | -60.84396 | 41 ft | 12 kts | 270° |
| 2026-04-30 14:28 | 11.15040 | -60.84439 | 42 ft | 2 kts | 352° |
| 2026-04-30 14:28 | 11.15047 | -60.84433 | 41 ft | 2 kts | 34° |
| 2026-04-30 14:28 | 11.15054 | -60.84417 | 41 ft | 4 kts | 69° |
| 2026-04-30 14:29 | 11.15011 | -60.83830 | 40 ft | 117 kts | 95° |
| 2026-04-30 14:29 | 11.14844 | -60.81470 | 751 ft | 183 kts | 94° |
| 2026-04-30 14:30 | 11.14247 | -60.77718 | 3420 ft | 197 kts | 130° |
| 2026-04-30 14:31 | 11.11388 | -60.76833 | 3798 ft | 251 kts | 197° |
| 2026-04-30 14:31 | 11.08657 | -60.79138 | 5217 ft | 262 kts | 237° |
| 2026-04-30 14:31 | 11.07847 | -60.80808 | 6207 ft | 266 kts | 253° |
| 2026-04-30 14:32 | 11.07850 | -60.84565 | 7996 ft | 274 kts | 280° |
| 2026-04-30 14:32 | 11.07732 | -60.86488 | 8827 ft | 276 kts | 250° |
| 2026-04-30 14:32 | 11.06821 | -60.88221 | 9620 ft | 281 kts | 234° |
| 2026-04-30 14:33 | 11.05572 | -60.89793 | 10276 ft | 295 kts | 229° |
| 2026-04-30 14:33 | 11.02368 | -60.93033 | 10612 ft | 352 kts | 222° |
| 2026-04-30 14:33 | 11.00513 | -60.94706 | 11377 ft | 359 kts | 221° |
| 2026-04-30 14:34 | 10.98601 | -60.96370 | 12209 ft | 364 kts | 220° |
| 2026-04-30 14:34 | 10.96675 | -60.98011 | 13001 ft | 368 kts | 220° |
| 2026-04-30 14:34 | 10.94694 | -60.99678 | 13776 ft | 372 kts | 220° |
| 2026-04-30 14:34 | 10.92685 | -61.01359 | 14507 ft | 376 kts | 219° |
| 2026-04-30 14:35 | 10.88597 | -61.04764 | 15888 ft | 384 kts | 219° |
| 2026-04-30 14:35 | 10.86524 | -61.06489 | 16540 ft | 388 kts | 219° |
| 2026-04-30 14:35 | 10.84421 | -61.08238 | 17175 ft | 392 kts | 219° |
| 2026-04-30 14:36 | 10.82305 | -61.09997 | 17794 ft | 395 kts | 219° |
| 2026-04-30 14:36 | 10.80164 | -61.11777 | 18338 ft | 400 kts | 219° |
| 2026-04-30 14:36 | 10.77997 | -61.13579 | 18929 ft | 403 kts | 219° |
| 2026-04-30 14:36 | 10.75811 | -61.15395 | 19441 ft | 408 kts | 219° |
| 2026-04-30 14:37 | 10.73654 | -61.17188 | 19992 ft | 410 kts | 219° |
| 2026-04-30 14:37 | 10.71438 | -61.19030 | 20482 ft | 414 kts | 219° |
| 2026-04-30 14:37 | 10.69196 | -61.20892 | 21001 ft | 417 kts | 219° |
| 2026-04-30 14:37 | 10.66944 | -61.22762 | 21520 ft | 420 kts | 219° |
| 2026-04-30 14:38 | 10.64670 | -61.24650 | 22070 ft | 422 kts | 219° |
| 2026-04-30 14:38 | 10.62388 | -61.26545 | 22589 ft | 426 kts | 219° |
| 2026-04-30 14:38 | 10.60079 | -61.28461 | 23108 ft | 429 kts | 219° |
| 2026-04-30 14:38 | 10.57790 | -61.30361 | 23608 ft | 432 kts | 219° |
| 2026-04-30 14:39 | 10.55425 | -61.32263 | 24108 ft | 435 kts | 216° |
| 2026-04-30 14:39 | 10.52866 | -61.33922 | 24606 ft | 439 kts | 207° |
| 2026-04-30 14:39 | 10.50034 | -61.35093 | 25097 ft | 442 kts | 195° |
| 2026-04-30 14:40 | 10.43887 | -61.35496 | 26071 ft | 450 kts | 171° |
| 2026-04-30 14:40 | 10.40851 | -61.34706 | 26523 ft | 453 kts | 159° |
| 2026-04-30 14:40 | 10.38004 | -61.33292 | 26945 ft | 458 kts | 148° |
| 2026-04-30 14:40 | 10.35395 | -61.31412 | 27409 ft | 461 kts | 142° |
| 2026-04-30 14:41 | 10.32910 | -61.29337 | 27848 ft | 464 kts | 140° |
| 2026-04-30 14:41 | 10.30443 | -61.27198 | 28295 ft | 467 kts | 140° |
| 2026-04-30 14:41 | 10.27960 | -61.25062 | 28724 ft | 470 kts | 140° |
| 2026-04-30 14:41 | 10.25432 | -61.22933 | 29139 ft | 473 kts | 141° |
| 2026-04-30 14:42 | 10.22905 | -61.20845 | 29536 ft | 476 kts | 141° |
| 2026-04-30 14:42 | 10.20311 | -61.18729 | 29924 ft | 479 kts | 141° |
| 2026-04-30 14:42 | 10.17699 | -61.16613 | 30390 ft | 479 kts | 141° |
| 2026-04-30 14:42 | 10.15100 | -61.14513 | 30863 ft | 478 kts | 141° |
| 2026-04-30 14:43 | 10.12493 | -61.12408 | 31354 ft | 477 kts | 141° |
| 2026-04-30 14:43 | 10.09890 | -61.10306 | 31808 ft | 477 kts | 141° |
| 2026-04-30 14:43 | 10.07296 | -61.08210 | 32278 ft | 475 kts | 141° |
| 2026-04-30 14:43 | 10.04710 | -61.06121 | 32694 ft | 474 kts | 141° |
| 2026-04-30 14:44 | 10.02134 | -61.04039 | 33116 ft | 473 kts | 141° |
| 2026-04-30 14:44 | 9.99558 | -61.01957 | 33505 ft | 472 kts | 141° |
| 2026-04-30 14:44 | 9.96990 | -60.99882 | 33882 ft | 472 kts | 141° |
| 2026-04-30 14:44 | 9.94423 | -60.97809 | 34258 ft | 471 kts | 141° |
| 2026-04-30 14:45 | 9.91910 | -60.95779 | 34621 ft | 469 kts | 141° |
| 2026-04-30 14:45 | 9.89347 | -60.93710 | 34914 ft | 470 kts | 141° |
| 2026-04-30 14:45 | 9.84221 | -60.89571 | 34996 ft | 471 kts | 141° |
| 2026-04-30 14:46 | 9.79092 | -60.85429 | 35002 ft | 470 kts | 141° |
| 2026-04-30 14:46 | 9.73972 | -60.81299 | 35000 ft | 470 kts | 141° |
| 2026-04-30 14:47 | 9.68844 | -60.77169 | 35003 ft | 470 kts | 142° |
| 2026-04-30 14:47 | 9.63741 | -60.73062 | 35001 ft | 470 kts | 142° |
| 2026-04-30 14:48 | 9.58614 | -60.68933 | 35001 ft | 470 kts | 142° |
| 2026-04-30 14:48 | 9.53496 | -60.64811 | 35000 ft | 470 kts | 142° |
| 2026-04-30 14:49 | 9.48456 | -60.60754 | 35002 ft | 470 kts | 142° |
| 2026-04-30 14:49 | 9.43329 | -60.56629 | 35002 ft | 470 kts | 142° |
| 2026-04-30 14:50 | 9.35638 | -60.50444 | 35003 ft | 470 kts | 142° |
| 2026-04-30 14:51 | 9.27947 | -60.44263 | 35003 ft | 470 kts | 142° |
| 2026-04-30 14:52 | 9.20259 | -60.38088 | 35001 ft | 470 kts | 142° |
| 2026-04-30 14:52 | 9.12597 | -60.31937 | 35000 ft | 470 kts | 142° |
| 2026-04-30 14:53 | 9.04896 | -60.25761 | 35003 ft | 470 kts | 142° |
| 2026-04-30 14:54 | 8.94395 | -60.17883 | 35005 ft | 470 kts | 150° |
| 2026-04-30 14:55 | 8.85735 | -60.13305 | 34999 ft | 470 kts | 153° |
| 2026-04-30 14:56 | 8.74112 | -60.07208 | 35000 ft | 470 kts | 152° |
| 2026-04-30 14:57 | 8.65430 | -60.02584 | 35002 ft | 470 kts | 152° |
| 2026-04-30 14:58 | 8.53851 | -59.96422 | 34998 ft | 470 kts | 152° |
| 2026-04-30 14:58 | 8.45199 | -59.91822 | 34998 ft | 470 kts | 152° |
| 2026-04-30 15:00 | 8.33591 | -59.85653 | 35003 ft | 471 kts | 152° |
| 2026-04-30 15:01 | 8.22187 | -59.79598 | 35001 ft | 471 kts | 152° |
| 2026-04-30 15:01 | 8.13490 | -59.74987 | 35000 ft | 471 kts | 152° |
| 2026-04-30 15:02 | 8.07690 | -59.71911 | 35002 ft | 471 kts | 152° |
| 2026-04-30 15:03 | 7.93182 | -59.64219 | 35002 ft | 471 kts | 152° |
| 2026-04-30 15:04 | 7.78708 | -59.56551 | 35001 ft | 471 kts | 152° |
| 2026-04-30 15:06 | 7.64202 | -59.48873 | 34997 ft | 471 kts | 152° |
| 2026-04-30 15:07 | 7.52582 | -59.42726 | 35002 ft | 471 kts | 152° |
| 2026-04-30 15:08 | 7.41013 | -59.36614 | 35000 ft | 471 kts | 152° |
| 2026-04-30 15:09 | 7.26495 | -59.28946 | 35001 ft | 471 kts | 152° |
| 2026-04-30 15:10 | 7.14869 | -59.22808 | 35002 ft | 472 kts | 152° |
| 2026-04-30 15:11 | 6.97463 | -59.13596 | 34999 ft | 471 kts | 152° |
| 2026-04-30 15:13 | 6.83930 | -59.06434 | 34999 ft | 471 kts | 152° |
| 2026-04-30 15:14 | 6.63610 | -58.95689 | 35004 ft | 471 kts | 152° |
| 2026-04-30 15:17 | 6.37587 | -58.81948 | 34997 ft | 471 kts | 152° |
| 2026-04-30 15:19 | 6.14361 | -58.69693 | 35001 ft | 471 kts | 152° |
| 2026-04-30 17:39 | -10.47923 | -50.64525 | 36856 ft | 470 kts | 150° |
| 2026-04-30 17:42 | -10.76762 | -50.48961 | 36856 ft | 469 kts | 150° |
| 2026-04-30 17:43 | -10.91201 | -50.41162 | 36854 ft | 469 kts | 150° |
| 2026-04-30 17:44 | -11.08467 | -50.31821 | 36862 ft | 468 kts | 150° |
| 2026-04-30 17:47 | -11.34312 | -50.17770 | 36862 ft | 468 kts | 150° |
| 2026-04-30 17:48 | -11.54423 | -50.06821 | 36863 ft | 468 kts | 150° |
| 2026-04-30 17:50 | -11.77381 | -49.94299 | 36867 ft | 469 kts | 150° |
| 2026-04-30 17:52 | -11.94645 | -49.84859 | 36863 ft | 469 kts | 150° |
| 2026-04-30 17:54 | -12.20503 | -49.70707 | 36868 ft | 469 kts | 150° |
| 2026-04-30 17:56 | -12.43087 | -49.58321 | 36868 ft | 469 kts | 150° |
| 2026-04-30 17:58 | -12.60316 | -49.48849 | 36873 ft | 470 kts | 150° |
| 2026-04-30 18:00 | -12.83135 | -49.36286 | 36872 ft | 470 kts | 150° |
| 2026-04-30 18:01 | -12.97460 | -49.28339 | 36878 ft | 469 kts | 150° |
| 2026-04-30 18:02 | -13.14690 | -49.18762 | 36879 ft | 469 kts | 150° |
| 2026-04-30 18:04 | -13.31880 | -49.09194 | 36880 ft | 469 kts | 150° |
| 2026-04-30 18:06 | -13.54843 | -48.96388 | 36887 ft | 469 kts | 150° |
| 2026-04-30 18:08 | -13.74851 | -48.85197 | 36904 ft | 469 kts | 150° |
| 2026-04-30 18:10 | -13.97620 | -48.72445 | 36911 ft | 469 kts | 150° |
| 2026-04-30 18:11 | -14.15939 | -48.62165 | 36917 ft | 468 kts | 150° |
| 2026-04-30 18:13 | -14.30191 | -48.54154 | 36919 ft | 467 kts | 150° |
| 2026-04-30 18:14 | -14.44464 | -48.46110 | 36924 ft | 467 kts | 150° |
| 2026-04-30 18:15 | -14.61557 | -48.36472 | 36937 ft | 467 kts | 150° |
| 2026-04-30 18:16 | -14.72956 | -48.30035 | 36940 ft | 467 kts | 150° |
| 2026-04-30 18:17 | -14.78650 | -48.26817 | 36946 ft | 467 kts | 150° |
| 2026-04-30 18:18 | -14.87241 | -48.22074 | 36952 ft | 466 kts | 154° |
| 2026-04-30 18:18 | -14.93192 | -48.19438 | 36952 ft | 467 kts | 157° |
| 2026-04-30 18:19 | -14.99234 | -48.16933 | 36953 ft | 468 kts | 157° |
| 2026-04-30 18:19 | -15.05265 | -48.14407 | 36953 ft | 468 kts | 157° |
| 2026-04-30 18:20 | -15.11297 | -48.11849 | 36958 ft | 468 kts | 156° |
| 2026-04-30 18:20 | -15.17319 | -48.09285 | 36958 ft | 468 kts | 157° |
| 2026-04-30 18:21 | -15.23316 | -48.06731 | 36957 ft | 469 kts | 157° |
| 2026-04-30 18:21 | -15.29387 | -48.04153 | 36962 ft | 469 kts | 157° |
| 2026-04-30 18:22 | -15.35387 | -48.01613 | 36964 ft | 469 kts | 157° |
| 2026-04-30 18:22 | -15.44313 | -47.97833 | 36970 ft | 469 kts | 157° |
| 2026-04-30 18:23 | -15.50364 | -47.95269 | 36974 ft | 470 kts | 157° |
| 2026-04-30 18:23 | -15.56413 | -47.92704 | 37001 ft | 470 kts | 157° |
| 2026-04-30 18:24 | -15.65513 | -47.88843 | 37045 ft | 471 kts | 157° |
| 2026-04-30 18:25 | -15.70558 | -47.86700 | 37067 ft | 471 kts | 157° |
| 2026-04-30 18:25 | -15.79668 | -47.82827 | 37093 ft | 472 kts | 158° |
| 2026-04-30 18:26 | -15.85742 | -47.80240 | 37712 ft | 472 kts | 157° |
| 2026-04-30 18:26 | -15.88777 | -47.78939 | 38033 ft | 472 kts | 157° |
| 2026-04-30 18:26 | -15.91817 | -47.77634 | 38317 ft | 471 kts | 157° |
| 2026-04-30 18:27 | -15.97874 | -47.75032 | 38863 ft | 471 kts | 157° |
| 2026-04-30 18:27 | -16.00906 | -47.73730 | 39000 ft | 471 kts | 158° |
| 2026-04-30 18:28 | -16.06963 | -47.71129 | 39019 ft | 471 kts | 158° |
| 2026-04-30 18:28 | -16.16050 | -47.67224 | 38991 ft | 471 kts | 158° |
| 2026-04-30 18:29 | -16.28176 | -47.62006 | 38986 ft | 472 kts | 158° |
| 2026-04-30 18:30 | -16.40283 | -47.56790 | 38989 ft | 472 kts | 158° |
| 2026-04-30 18:31 | -16.48505 | -47.51270 | 38995 ft | 474 kts | 136° |
| 2026-04-30 18:32 | -16.55310 | -47.43773 | 38989 ft | 475 kts | 134° |
| 2026-04-30 18:33 | -16.62234 | -47.36405 | 38990 ft | 475 kts | 136° |
| 2026-04-30 18:33 | -16.69219 | -47.29145 | 38990 ft | 474 kts | 136° |
| 2026-04-30 18:34 | -16.76244 | -47.21833 | 38995 ft | 475 kts | 136° |
| 2026-04-30 18:35 | -16.80916 | -47.16964 | 38993 ft | 475 kts | 136° |
| 2026-04-30 18:35 | -16.85611 | -47.12109 | 38989 ft | 475 kts | 137° |
| 2026-04-30 18:36 | -16.92850 | -47.05043 | 38987 ft | 475 kts | 139° |
| 2026-04-30 18:37 | -17.00086 | -46.98046 | 38986 ft | 474 kts | 139° |
| 2026-04-30 18:37 | -17.04947 | -46.93324 | 38986 ft | 474 kts | 138° |
| 2026-04-30 18:38 | -17.09744 | -46.88659 | 38987 ft | 474 kts | 138° |
| 2026-04-30 18:38 | -17.14593 | -46.84005 | 38980 ft | 473 kts | 142° |
| 2026-04-30 18:39 | -17.20024 | -46.80158 | 38981 ft | 471 kts | 151° |
| 2026-04-30 18:39 | -17.25706 | -46.76762 | 38977 ft | 471 kts | 152° |
| 2026-04-30 18:40 | -17.31389 | -46.73356 | 38970 ft | 470 kts | 151° |
| 2026-04-30 18:40 | -17.37047 | -46.69891 | 38973 ft | 470 kts | 151° |
| 2026-04-30 18:41 | -17.42686 | -46.66407 | 38973 ft | 470 kts | 151° |
| 2026-04-30 18:41 | -17.48326 | -46.62919 | 38967 ft | 470 kts | 151° |
| 2026-04-30 18:42 | -17.53955 | -46.59436 | 38972 ft | 470 kts | 151° |
| 2026-04-30 18:42 | -17.62409 | -46.54203 | 38971 ft | 470 kts | 151° |
| 2026-04-30 18:45 | -17.93401 | -46.34960 | 38988 ft | 471 kts | 151° |
| 2026-04-30 18:46 | -17.99044 | -46.31446 | 38994 ft | 471 kts | 151° |
| 2026-04-30 18:46 | -18.04683 | -46.27935 | 38993 ft | 471 kts | 151° |
| 2026-04-30 18:47 | -18.10325 | -46.24419 | 38999 ft | 471 kts | 151° |
| 2026-04-30 18:47 | -18.15850 | -46.20974 | 38998 ft | 472 kts | 151° |
| 2026-04-30 18:48 | -18.21498 | -46.17451 | 39003 ft | 472 kts | 151° |
| 2026-04-30 18:48 | -18.27157 | -46.13928 | 39009 ft | 472 kts | 151° |
| 2026-04-30 18:49 | -18.32820 | -46.10408 | 39009 ft | 472 kts | 151° |
| 2026-04-30 18:49 | -18.38490 | -46.06882 | 39009 ft | 472 kts | 151° |
| 2026-04-30 18:50 | -18.44150 | -46.03360 | 39012 ft | 473 kts | 151° |
| 2026-04-30 18:50 | -18.49772 | -45.99858 | 39013 ft | 473 kts | 151° |
| 2026-04-30 18:51 | -18.55441 | -45.96325 | 39018 ft | 473 kts | 151° |
| 2026-04-30 18:51 | -18.61103 | -45.92792 | 39016 ft | 473 kts | 151° |
| 2026-04-30 18:52 | -18.66765 | -45.89257 | 39019 ft | 473 kts | 151° |
| 2026-04-30 18:52 | -18.72423 | -45.85722 | 39015 ft | 473 kts | 151° |
| 2026-04-30 18:53 | -18.78086 | -45.82182 | 39010 ft | 473 kts | 151° |
| 2026-04-30 18:53 | -18.83748 | -45.78650 | 39010 ft | 473 kts | 152° |
| 2026-04-30 18:54 | -18.89449 | -45.75161 | 39008 ft | 473 kts | 152° |
| 2026-04-30 18:54 | -18.95154 | -45.71692 | 39013 ft | 473 kts | 152° |
| 2026-04-30 18:55 | -19.00824 | -45.68240 | 39014 ft | 473 kts | 152° |
| 2026-04-30 18:55 | -19.09383 | -45.63019 | 39003 ft | 473 kts | 152° |
| 2026-04-30 18:56 | -19.17938 | -45.57792 | 39014 ft | 473 kts | 152° |
| 2026-04-30 18:57 | -19.26483 | -45.52566 | 39004 ft | 473 kts | 152° |
| 2026-04-30 18:57 | -19.32180 | -45.49077 | 39011 ft | 473 kts | 152° |
| 2026-04-30 18:58 | -19.40727 | -45.43812 | 38995 ft | 473 kts | 152° |
| 2026-04-30 18:59 | -19.49215 | -45.38578 | 39013 ft | 473 kts | 152° |
| 2026-04-30 19:00 | -19.60597 | -45.31554 | 39007 ft | 473 kts | 152° |
| 2026-04-30 19:01 | -19.71995 | -45.24507 | 39015 ft | 474 kts | 152° |
| 2026-04-30 19:02 | -19.80547 | -45.19213 | 39018 ft | 474 kts | 152° |
| 2026-04-30 19:03 | -19.91919 | -45.12192 | 39020 ft | 474 kts | 153° |
| 2026-04-30 19:04 | -20.03352 | -45.05168 | 39031 ft | 475 kts | 153° |
| 2026-04-30 19:05 | -20.14800 | -44.98122 | 39037 ft | 475 kts | 153° |
| 2026-04-30 19:06 | -20.26214 | -44.91085 | 39032 ft | 475 kts | 153° |
| 2026-04-30 19:06 | -20.34835 | -44.85760 | 39034 ft | 476 kts | 153° |
| 2026-04-30 19:07 | -20.43438 | -44.80442 | 39028 ft | 476 kts | 153° |
| 2026-04-30 19:08 | -20.54839 | -44.73188 | 39035 ft | 478 kts | 152° |
| 2026-04-30 19:09 | -20.63290 | -44.67618 | 39041 ft | 478 kts | 152° |
| 2026-04-30 19:09 | -20.68950 | -44.63895 | 39045 ft | 478 kts | 152° |
| 2026-04-30 19:10 | -20.79364 | -44.57059 | 39049 ft | 478 kts | 152° |
| 2026-04-30 19:11 | -20.87936 | -44.51629 | 39045 ft | 477 kts | 153° |
| 2026-04-30 19:12 | -20.93661 | -44.48031 | 39046 ft | 477 kts | 153° |
| 2026-04-30 19:12 | -20.99385 | -44.44423 | 39048 ft | 478 kts | 153° |
| 2026-04-30 19:13 | -21.10700 | -44.37264 | 37564 ft | 461 kts | 153° |
| 2026-04-30 19:13 | -21.13453 | -44.35512 | 36906 ft | 460 kts | 153° |
| 2026-04-30 19:14 | -21.16220 | -44.33755 | 36312 ft | 462 kts | 153° |
| 2026-04-30 19:14 | -21.18994 | -44.31993 | 35748 ft | 464 kts | 153° |
| 2026-04-30 19:14 | -21.21777 | -44.30224 | 35189 ft | 466 kts | 152° |
| 2026-04-30 19:14 | -21.24537 | -44.28462 | 34625 ft | 468 kts | 152° |
| 2026-04-30 19:15 | -21.27338 | -44.26662 | 33957 ft | 470 kts | 152° |
| 2026-04-30 19:15 | -21.32975 | -44.23026 | 32619 ft | 474 kts | 152° |
| 2026-04-30 19:15 | -21.35809 | -44.21195 | 31993 ft | 477 kts | 152° |
| 2026-04-30 19:16 | -21.38652 | -44.19359 | 31375 ft | 479 kts | 152° |
| 2026-04-30 19:16 | -21.41512 | -44.17512 | 30774 ft | 482 kts | 152° |
| 2026-04-30 19:16 | -21.47272 | -44.13783 | 29441 ft | 484 kts | 151° |
| 2026-04-30 19:17 | -21.50161 | -44.11904 | 28774 ft | 486 kts | 151° |
| 2026-04-30 19:17 | -21.55975 | -44.08155 | 27474 ft | 487 kts | 153° |
| 2026-04-30 19:17 | -21.58962 | -44.06445 | 26807 ft | 484 kts | 155° |
| 2026-04-30 19:18 | -21.63948 | -44.03844 | 25708 ft | 475 kts | 157° |
| 2026-04-30 19:18 | -21.67928 | -44.01831 | 24830 ft | 469 kts | 157° |
| 2026-04-30 19:18 | -21.70865 | -44.00341 | 24180 ft | 465 kts | 157° |
| 2026-04-30 19:19 | -21.73772 | -43.98855 | 23523 ft | 460 kts | 157° |
| 2026-04-30 19:19 | -21.76648 | -43.97375 | 22796 ft | 458 kts | 157° |
| 2026-04-30 19:19 | -21.82299 | -43.94454 | 21485 ft | 450 kts | 157° |
| 2026-04-30 19:20 | -21.85110 | -43.92999 | 20852 ft | 446 kts | 157° |
| 2026-04-30 19:20 | -21.87894 | -43.91560 | 20225 ft | 443 kts | 157° |
| 2026-04-30 19:20 | -21.93404 | -43.88716 | 18971 ft | 436 kts | 157° |
| 2026-04-30 19:21 | -21.96135 | -43.87307 | 18353 ft | 432 kts | 157° |
| 2026-04-30 19:21 | -22.01509 | -43.84533 | 17024 ft | 423 kts | 156° |
| 2026-04-30 19:22 | -22.06766 | -43.81818 | 15815 ft | 413 kts | 156° |
| 2026-04-30 19:22 | -22.14416 | -43.77863 | 14131 ft | 400 kts | 155° |
| 2026-04-30 19:23 | -22.21831 | -43.74021 | 12402 ft | 387 kts | 155° |
| 2026-04-30 19:24 | -22.26595 | -43.71552 | 11358 ft | 377 kts | 156° |
| 2026-04-30 19:24 | -22.28950 | -43.70331 | 11022 ft | 373 kts | 156° |
| 2026-04-30 19:24 | -22.33441 | -43.67993 | 10761 ft | 339 kts | 156° |
| 2026-04-30 19:25 | -22.39352 | -43.64917 | 10361 ft | 296 kts | 156° |
| 2026-04-30 19:26 | -22.43016 | -43.63014 | 9518 ft | 292 kts | 156° |
| 2026-04-30 19:26 | -22.46686 | -43.61109 | 8522 ft | 293 kts | 155° |
| 2026-04-30 19:26 | -22.48515 | -43.60159 | 8141 ft | 290 kts | 155° |
| 2026-04-30 19:27 | -22.52099 | -43.58292 | 7417 ft | 282 kts | 155° |
| 2026-04-30 19:27 | -22.55462 | -43.56541 | 7066 ft | 275 kts | 155° |
| 2026-04-30 19:28 | -22.57187 | -43.55637 | 6951 ft | 277 kts | 155° |
| 2026-04-30 19:28 | -22.60625 | -43.53828 | 6472 ft | 271 kts | 154° |
| 2026-04-30 19:29 | -22.63940 | -43.51908 | 6428 ft | 272 kts | 139° |
| 2026-04-30 19:29 | -22.64704 | -43.51083 | 6354 ft | 274 kts | 132° |
| 2026-04-30 19:30 | -22.67938 | -43.46375 | 5323 ft | 235 kts | 126° |
| 2026-04-30 19:30 | -22.69683 | -43.43720 | 4390 ft | 200 kts | 125° |
| 2026-04-30 19:31 | -22.71262 | -43.41327 | 3834 ft | 193 kts | 125° |
| 2026-04-30 19:31 | -22.72044 | -43.40144 | 3520 ft | 193 kts | 125° |
| 2026-04-30 19:31 | -22.73586 | -43.37813 | 2735 ft | 188 kts | 125° |
| 2026-04-30 19:32 | -22.74346 | -43.36663 | 2338 ft | 187 kts | 125° |
| 2026-04-30 19:32 | -22.75099 | -43.35529 | 1994 ft | 184 kts | 127° |
| 2026-04-30 19:32 | -22.75881 | -43.34447 | 1756 ft | 182 kts | 128° |
| 2026-04-30 19:32 | -22.76620 | -43.33377 | 1535 ft | 180 kts | 125° |
| 2026-04-30 19:33 | -22.77342 | -43.32263 | 1254 ft | 178 kts | 126° |
| 2026-04-30 19:33 | -22.78058 | -43.31163 | 1114 ft | 178 kts | 126° |
| 2026-04-30 19:33 | -22.78769 | -43.30081 | 802 ft | 176 kts | 127° |
| 2026-04-30 19:33 | -22.79491 | -43.29013 | 650 ft | 176 kts | 126° |
| 2026-04-30 19:34 | -22.80194 | -43.27943 | 441 ft | 171 kts | 126° |
| 2026-04-30 19:34 | -22.80843 | -43.26952 | 209 ft | 156 kts | 126° |
| 2026-04-30 19:34 | -22.81982 | -43.25254 | 34 ft | 92 kts | 126° |
| 2026-04-30 19:35 | -22.82275 | -43.24815 | 25 ft | 54 kts | 126° |
| 2026-04-30 19:35 | -22.82457 | -43.24546 | 29 ft | 40 kts | 126° |
| 2026-04-30 19:35 | -22.82580 | -43.24354 | 30 ft | 28 kts | 125° |
| 2026-04-30 19:35 | -22.82631 | -43.24270 | 29 ft | 4 kts | 108° |
| 2026-04-30 19:36 | -22.82624 | -43.24234 | 28 ft | 7 kts | 64° |
| 2026-04-30 19:36 | -22.82585 | -43.24194 | 29 ft | 5 kts | 39° |
| 2026-04-30 19:36 | -22.82494 | -43.24202 | 28 ft | 10 kts | 309° |
| 2026-04-30 19:37 | -22.82446 | -43.24274 | 28 ft | 11 kts | 307° |
| 2026-04-30 19:37 | -22.82400 | -43.24339 | 27 ft | 11 kts | 307° |
| 2026-04-30 19:37 | -22.82358 | -43.24407 | 29 ft | 12 kts | 303° |
| 2026-04-30 19:37 | -22.82298 | -43.24494 | 26 ft | 16 kts | 309° |
| 2026-04-30 19:38 | -22.82234 | -43.24590 | 27 ft | 16 kts | 303° |
| 2026-04-30 19:38 | -22.82168 | -43.24699 | 27 ft | 13 kts | 304° |
| 2026-04-30 19:38 | -22.82104 | -43.24716 | 28 ft | 11 kts | 17° |
| 2026-04-30 19:38 | -22.82024 | -43.24665 | 29 ft | 15 kts | 35° |
| 2026-04-30 19:39 | -22.81957 | -43.24615 | 29 ft | 7 kts | 33° |
| 2026-04-30 19:39 | -22.81900 | -43.24606 | 29 ft | 10 kts | 11° |
| 2026-04-30 19:39 | -22.81843 | -43.24576 | 29 ft | 3 kts | 32° |
| 2026-04-30 19:39 | -22.81823 | -43.24561 | 29 ft | 4 kts | 35° |
| 2026-04-30 19:40 | -22.81818 | -43.24556 | 29 ft | 0 kts | 36° |
| 2026-04-30 19:40 | -22.81809 | -43.24549 | 29 ft | 2 kts | 35° |
| 2026-04-30 19:41 | -22.81794 | -43.24538 | 29 ft | 3 kts | 35° |
| 2026-04-30 19:41 | -22.81778 | -43.24526 | 29 ft | 0 kts | 35° |
| 2026-04-30 19:43 | -22.81776 | -43.24524 | 29 ft | 2 kts | 35° |
| 2026-04-30 19:44 | -22.81747 | -43.24499 | 29 ft | 4 kts | 46° |
| 2026-04-30 19:44 | -22.81742 | -43.24481 | 29 ft | 3 kts | 78° |
| 2026-04-30 19:44 | -22.81750 | -43.24450 | 27 ft | 5 kts | 117° |
| 2026-04-30 19:44 | -22.81765 | -43.24425 | 27 ft | 4 kts | 124° |
| 2026-04-30 19:45 | -22.81772 | -43.24413 | 29 ft | 2 kts | 125° |
| 2026-04-30 19:45 | -22.81776 | -43.24407 | 29 ft | 1 kts | 126° |
| 2026-04-30 19:45 | -22.81779 | -43.24403 | 29 ft | 2 kts | 126° |
| 2026-04-30 19:45 | -22.81781 | -43.24400 | 29 ft | 0 kts | 126° |